Rocky Mountain Metropolitan Airport
KBJC : now visible

Airfield :











YOU CAN JOIN US ON...

 
LOGIN :

Register | Disclaimer

   EN    FR    IT 

 









Legend :    VFR   Marginal VFR   IFR   Intensive IFR   Very Intensive IFR
Visi :
Ceiling :
>= 8 km
>= 3000ft
5 to 8 km
1000 to 3000 ft
1500m to 5 km
500 to 1000 ft
800 to 1500m
200 to 500 ft
< 800m
< 200 ft
Symbols :   Thunderstorms  Fog  Heavy snow  Heavy precipitations  Wind > 20 kt






- Airport Elevation : 5673 ft


KBJC - Rocky Mountain Metropolitan

CURRENT METAR :
  • 041347Z 34006KT 10SM SCT150 01/M04 A3015

EXPIRED METARs :
  • 041250Z 00000KT 10SM SCT150 01/M04 A3016
  • 041235Z AUTO 23005KT 10SM CLR 01/M05 A3016 RMK AO2
  • 041215Z AUTO 17003KT 10SM CLR 00/M04 A3016 RMK AO2
  • 041155Z AUTO 00000KT 10SM SCT090 01/M05 A3016 RMK AO2
  • 041135Z AUTO 00000KT 10SM BKN090 01/M06 A3016 RMK AO2

TAF KBJC
Valid from the 04 at 12:00 until the 05 at 12:00 UTC


041120Z 0412/0512 VRB05KT P6SM SCT090 BKN200
FM042100 30008KT P6SM FEW140 BKN220
FM050200 27012G22KT P6SM FEW140 BKN220
KZDV FIR / North America



MET'MAP, your aeronautical weather chart ! - Copyright ORBIFLY December 2007 - Disclaimer

ORBIFLY MET'MAP TEAM :

Programming & Development : Alexandra Zaïnal
Original concept : Baudouin d'Aumeries
Technical & hardware support : Manuel Goepfert
Assistance : Marc-Olivier Méhu




SOURCES & CREDITS :

   NOAA       Earth
Advisory